sensor_id;sensor_type;location;lat;lon;timestamp;P1;durP1;ratioP1;P2;durP2;ratioP2
70067;SDS011;57425;51.616;6.680;2023-04-01T00:01:33;2.00;;;0.60;;
70067;SDS011;57425;51.616;6.680;2023-04-01T00:03:59;1.55;;;0.60;;
70067;SDS011;57425;51.616;6.680;2023-04-01T00:06:27;1.50;;;0.50;;
70067;SDS011;57425;51.616;6.680;2023-04-01T00:08:53;2.00;;;0.60;;
70067;SDS011;57425;51.616;6.680;2023-04-01T00:11:19;1.73;;;0.52;;
70067;SDS011;57425;51.616;6.680;2023-04-01T00:13:46;1.87;;;0.77;;
70067;SDS011;57425;51.616;6.680;2023-04-01T00:16:12;5.50;;;1.20;;
70067;SDS011;57425;51.616;6.680;2023-04-01T00:18:38;1.47;;;0.50;;
70067;SDS011;57425;51.616;6.680;2023-04-01T00:21:04;2.23;;;1.13;;
70067;SDS011;57425;51.616;6.680;2023-04-01T00:23:30;1.77;;;0.53;;
70067;SDS011;57425;51.616;6.680;2023-04-01T00:25:56;1.90;;;1.00;;
70067;SDS011;57425;51.616;6.680;2023-04-01T00:28:24;4.90;;;0.87;;
70067;SDS011;57425;51.616;6.680;2023-04-01T00:30:50;5.03;;;0.80;;
70067;SDS011;57425;51.616;6.680;2023-04-01T00:33:15;2.00;;;0.70;;
70067;SDS011;57425;51.616;6.680;2023-04-01T00:35:41;3.90;;;0.88;;
70067;SDS011;57425;51.616;6.680;2023-04-01T00:38:07;2.00;;;0.73;;
70067;SDS011;57425;51.616;6.680;2023-04-01T00:40:34;4.45;;;1.20;;
70067;SDS011;57425;51.616;6.680;2023-04-01T00:43:02;2.78;;;0.73;;
70067;SDS011;57425;51.616;6.680;2023-04-01T00:45:35;5.27;;;0.80;;
70067;SDS011;57425;51.616;6.680;2023-04-01T00:48:10;3.30;;;0.80;;
70067;SDS011;57425;51.616;6.680;2023-04-01T00:50:42;1.77;;;0.50;;
70067;SDS011;57425;51.616;6.680;2023-04-01T00:53:13;1.10;;;0.50;;
70067;SDS011;57425;51.616;6.680;2023-04-01T00:55:41;4.83;;;0.93;;
70067;SDS011;57425;51.616;6.680;2023-04-01T00:58:12;2.67;;;0.60;;
70067;SDS011;57425;51.616;6.680;2023-04-01T01:00:42;4.77;;;0.63;;
70067;SDS011;57425;51.616;6.680;2023-04-01T01:03:09;1.43;;;0.60;;
70067;SDS011;57425;51.616;6.680;2023-04-01T01:05:54;1.80;;;0.63;;
70067;SDS011;57425;51.616;6.680;2023-04-01T01:08:32;2.03;;;0.60;;
70067;SDS011;57425;51.616;6.680;2023-04-01T01:11:03;2.55;;;0.77;;
70067;SDS011;57425;51.616;6.680;2023-04-01T01:13:36;1.23;;;0.57;;
70067;SDS011;57425;51.616;6.680;2023-04-01T01:16:15;0.60;;;0.60;;
70067;SDS011;57425;51.616;6.680;2023-04-01T01:24:39;0.97;;;0.60;;
70067;SDS011;57425;51.616;6.680;2023-04-01T01:27:16;1.38;;;0.50;;
70067;SDS011;57425;51.616;6.680;2023-04-01T01:29:52;2.33;;;0.60;;
70067;SDS011;57425;51.616;6.680;2023-04-01T01:33:01;0.83;;;0.67;;
70067;SDS011;57425;51.616;6.680;2023-04-01T01:38:10;3.63;;;0.83;;
70067;SDS011;57425;51.616;6.680;2023-04-01T01:40:37;2.27;;;0.70;;
70067;SDS011;57425;51.616;6.680;2023-04-01T01:43:05;2.87;;;0.53;;
70067;SDS011;57425;51.616;6.680;2023-04-01T01:45:33;1.23;;;0.40;;
70067;SDS011;57425;51.616;6.680;2023-04-01T01:48:01;3.93;;;0.57;;
70067;SDS011;57425;51.616;6.680;2023-04-01T01:50:30;2.83;;;1.10;;
70067;SDS011;57425;51.616;6.680;2023-04-01T01:53:02;5.10;;;0.60;;
70067;SDS011;57425;51.616;6.680;2023-04-01T01:55:30;5.05;;;0.50;;
70067;SDS011;57425;51.616;6.680;2023-04-01T01:58:01;1.20;;;0.90;;
70067;SDS011;57425;51.616;6.680;2023-04-01T02:00:28;1.52;;;0.70;;
70067;SDS011;57425;51.616;6.680;2023-04-01T02:02:54;1.27;;;1.07;;
70067;SDS011;57425;51.616;6.680;2023-04-01T02:05:22;5.07;;;0.50;;
70067;SDS011;57425;51.616;6.680;2023-04-01T02:07:55;2.90;;;0.67;;
70067;SDS011;57425;51.616;6.680;2023-04-01T02:10:23;0.40;;;0.40;;
70067;SDS011;57425;51.616;6.680;2023-04-01T02:12:50;0.83;;;0.37;;
70067;SDS011;57425;51.616;6.680;2023-04-01T02:15:18;2.80;;;0.50;;
70067;SDS011;57425;51.616;6.680;2023-04-01T02:17:46;4.53;;;0.47;;
70067;SDS011;57425;51.616;6.680;2023-04-01T02:22:41;1.37;;;0.60;;
70067;SDS011;57425;51.616;6.680;2023-04-01T02:25:11;0.30;;;0.30;;
70067;SDS011;57425;51.616;6.680;2023-04-01T02:27:38;0.60;;;0.40;;
70067;SDS011;57425;51.616;6.680;2023-04-01T02:30:04;2.00;;;0.50;;
70067;SDS011;57425;51.616;6.680;2023-04-01T02:32:31;0.57;;;0.40;;
70067;SDS011;57425;51.616;6.680;2023-04-01T02:34:58;2.53;;;0.43;;
70067;SDS011;57425;51.616;6.680;2023-04-01T02:37:28;1.63;;;0.40;;
70067;SDS011;57425;51.616;6.680;2023-04-01T02:39:55;2.50;;;0.60;;
70067;SDS011;57425;51.616;6.680;2023-04-01T02:42:24;0.40;;;0.20;;
70067;SDS011;57425;51.616;6.680;2023-04-01T02:44:51;0.70;;;0.37;;
70067;SDS011;57425;51.616;6.680;2023-04-01T02:47:17;1.60;;;0.60;;
70067;SDS011;57425;51.616;6.680;2023-04-01T02:49:43;2.93;;;0.30;;
70067;SDS011;57425;51.616;6.680;2023-04-01T02:52:09;6.43;;;0.50;;
70067;SDS011;57425;51.616;6.680;2023-04-01T02:54:35;0.50;;;0.40;;
70067;SDS011;57425;51.616;6.680;2023-04-01T02:57:02;1.43;;;0.50;;
70067;SDS011;57425;51.616;6.680;2023-04-01T02:59:27;0.90;;;0.40;;
70067;SDS011;57425;51.616;6.680;2023-04-01T03:01:54;0.53;;;0.30;;
70067;SDS011;57425;51.616;6.680;2023-04-01T03:04:20;0.53;;;0.33;;
70067;SDS011;57425;51.616;6.680;2023-04-01T03:06:46;1.10;;;0.57;;
70067;SDS011;57425;51.616;6.680;2023-04-01T03:09:14;3.03;;;0.47;;
70067;SDS011;57425;51.616;6.680;2023-04-01T03:11:41;0.30;;;0.30;;
70067;SDS011;57425;51.616;6.680;2023-04-01T03:14:07;1.00;;;0.30;;
70067;SDS011;57425;51.616;6.680;2023-04-01T03:16:33;1.07;;;0.63;;
70067;SDS011;57425;51.616;6.680;2023-04-01T03:18:59;0.70;;;0.40;;
70067;SDS011;57425;51.616;6.680;2023-04-01T03:21:27;0.60;;;0.30;;
70067;SDS011;57425;51.616;6.680;2023-04-01T03:23:54;0.50;;;0.40;;
70067;SDS011;57425;51.616;6.680;2023-04-01T03:26:20;0.30;;;0.30;;
70067;SDS011;57425;51.616;6.680;2023-04-01T03:28:46;1.33;;;0.40;;
70067;SDS011;57425;51.616;6.680;2023-04-01T03:31:12;0.60;;;0.50;;
70067;SDS011;57425;51.616;6.680;2023-04-01T03:33:39;0.47;;;0.40;;
70067;SDS011;57425;51.616;6.680;2023-04-01T03:36:05;0.67;;;0.50;;
70067;SDS011;57425;51.616;6.680;2023-04-01T03:38:32;0.50;;;0.50;;
70067;SDS011;57425;51.616;6.680;2023-04-01T03:40:58;1.00;;;0.43;;
70067;SDS011;57425;51.616;6.680;2023-04-01T03:43:24;1.27;;;0.30;;
70067;SDS011;57425;51.616;6.680;2023-04-01T03:45:50;0.70;;;0.47;;
70067;SDS011;57425;51.616;6.680;2023-04-01T03:48:17;1.97;;;0.60;;
70067;SDS011;57425;51.616;6.680;2023-04-01T03:50:43;0.73;;;0.43;;
70067;SDS011;57425;51.616;6.680;2023-04-01T03:53:09;2.13;;;0.50;;
70067;SDS011;57425;51.616;6.680;2023-04-01T03:55:35;1.10;;;0.57;;
70067;SDS011;57425;51.616;6.680;2023-04-01T03:58:02;0.70;;;0.47;;
70067;SDS011;57425;51.616;6.680;2023-04-01T04:00:32;0.60;;;0.50;;
70067;SDS011;57425;51.616;6.680;2023-04-01T04:02:58;2.37;;;0.53;;
70067;SDS011;57425;51.616;6.680;2023-04-01T04:05:24;1.53;;;0.60;;
70067;SDS011;57425;51.616;6.680;2023-04-01T04:07:51;0.70;;;0.50;;
70067;SDS011;57425;51.616;6.680;2023-04-01T04:10:17;3.37;;;0.70;;
70067;SDS011;57425;51.616;6.680;2023-04-01T04:12:43;1.30;;;0.90;;
70067;SDS011;57425;51.616;6.680;2023-04-01T04:15:09;0.90;;;0.80;;
70067;SDS011;57425;51.616;6.680;2023-04-01T04:17:35;2.20;;;0.80;;
70067;SDS011;57425;51.616;6.680;2023-04-01T04:20:02;3.10;;;1.30;;
70067;SDS011;57425;51.616;6.680;2023-04-01T04:22:28;2.60;;;1.00;;
70067;SDS011;57425;51.616;6.680;2023-04-01T04:24:53;1.77;;;1.17;;
70067;SDS011;57425;51.616;6.680;2023-04-01T04:27:19;1.60;;;1.10;;
70067;SDS011;57425;51.616;6.680;2023-04-01T04:29:45;1.10;;;1.00;;
70067;SDS011;57425;51.616;6.680;2023-04-01T04:32:11;1.70;;;1.20;;
70067;SDS011;57425;51.616;6.680;2023-04-01T04:34:36;2.83;;;1.40;;
70067;SDS011;57425;51.616;6.680;2023-04-01T04:37:02;2.00;;;1.37;;
70067;SDS011;57425;51.616;6.680;2023-04-01T04:39:28;2.17;;;1.13;;
70067;SDS011;57425;51.616;6.680;2023-04-01T04:41:54;1.80;;;1.20;;
70067;SDS011;57425;51.616;6.680;2023-04-01T04:44:20;4.13;;;1.33;;
70067;SDS011;57425;51.616;6.680;2023-04-01T04:46:45;3.27;;;1.10;;
70067;SDS011;57425;51.616;6.680;2023-04-01T04:49:11;4.73;;;1.27;;
70067;SDS011;57425;51.616;6.680;2023-04-01T04:51:37;0.70;;;0.67;;
70067;SDS011;57425;51.616;6.680;2023-04-01T04:54:03;1.07;;;0.97;;
70067;SDS011;57425;51.616;6.680;2023-04-01T04:56:30;4.30;;;1.10;;
70067;SDS011;57425;51.616;6.680;2023-04-01T04:58:56;2.23;;;0.87;;
70067;SDS011;57425;51.616;6.680;2023-04-01T05:01:22;4.67;;;1.17;;
70067;SDS011;57425;51.616;6.680;2023-04-01T05:03:48;4.67;;;1.03;;
70067;SDS011;57425;51.616;6.680;2023-04-01T05:06:14;1.93;;;1.50;;
70067;SDS011;57425;51.616;6.680;2023-04-01T05:08:42;1.97;;;1.10;;
70067;SDS011;57425;51.616;6.680;2023-04-01T05:11:12;1.60;;;1.17;;
70067;SDS011;57425;51.616;6.680;2023-04-01T05:13:44;1.60;;;1.27;;
70067;SDS011;57425;51.616;6.680;2023-04-01T05:16:11;1.00;;;0.90;;
70067;SDS011;57425;51.616;6.680;2023-04-01T05:18:39;2.17;;;1.37;;
70067;SDS011;57425;51.616;6.680;2023-04-01T05:21:06;2.50;;;1.80;;
70067;SDS011;57425;51.616;6.680;2023-04-01T05:23:33;1.67;;;1.57;;
70067;SDS011;57425;51.616;6.680;2023-04-01T05:26:02;6.83;;;1.90;;
70067;SDS011;57425;51.616;6.680;2023-04-01T05:28:32;2.25;;;1.70;;
70067;SDS011;57425;51.616;6.680;2023-04-01T05:30:59;4.70;;;2.80;;
70067;SDS011;57425;51.616;6.680;2023-04-01T05:33:26;5.27;;;2.50;;
70067;SDS011;57425;51.616;6.680;2023-04-01T05:35:52;5.93;;;3.13;;
70067;SDS011;57425;51.616;6.680;2023-04-01T05:38:18;7.47;;;2.93;;
70067;SDS011;57425;51.616;6.680;2023-04-01T05:40:44;9.57;;;3.33;;
70067;SDS011;57425;51.616;6.680;2023-04-01T05:43:10;10.13;;;2.80;;
70067;SDS011;57425;51.616;6.680;2023-04-01T05:45:37;3.57;;;2.27;;
70067;SDS011;57425;51.616;6.680;2023-04-01T05:48:02;4.87;;;1.90;;
70067;SDS011;57425;51.616;6.680;2023-04-01T05:50:28;2.77;;;2.03;;
70067;SDS011;57425;51.616;6.680;2023-04-01T05:52:55;3.40;;;2.13;;
70067;SDS011;57425;51.616;6.680;2023-04-01T05:55:23;4.17;;;2.80;;
70067;SDS011;57425;51.616;6.680;2023-04-01T05:57:49;4.40;;;2.60;;
70067;SDS011;57425;51.616;6.680;2023-04-01T06:00:15;6.10;;;2.77;;
70067;SDS011;57425;51.616;6.680;2023-04-01T06:02:42;6.23;;;3.13;;
70067;SDS011;57425;51.616;6.680;2023-04-01T06:05:12;6.17;;;2.60;;
70067;SDS011;57425;51.616;6.680;2023-04-01T06:07:43;5.77;;;3.27;;
70067;SDS011;57425;51.616;6.680;2023-04-01T06:10:17;4.67;;;2.50;;
70067;SDS011;57425;51.616;6.680;2023-04-01T06:15:36;5.57;;;2.93;;
70067;SDS011;57425;51.616;6.680;2023-04-01T06:23:49;6.30;;;2.80;;
70067;SDS011;57425;51.616;6.680;2023-04-01T06:26:39;3.37;;;2.10;;
70067;SDS011;57425;51.616;6.680;2023-04-01T06:37:00;2.90;;;2.33;;
70067;SDS011;57425;51.616;6.680;2023-04-01T06:47:56;5.17;;;2.40;;
70067;SDS011;57425;51.616;6.680;2023-04-01T06:56:22;3.43;;;2.17;;
70067;SDS011;57425;51.616;6.680;2023-04-01T07:01:47;4.93;;;2.43;;
70067;SDS011;57425;51.616;6.680;2023-04-01T07:04:16;3.73;;;1.83;;
70067;SDS011;57425;51.616;6.680;2023-04-01T07:07:29;3.60;;;2.00;;
70067;SDS011;57425;51.616;6.680;2023-04-01T07:09:57;6.20;;;2.33;;
70067;SDS011;57425;51.616;6.680;2023-04-01T07:15:15;3.93;;;2.00;;
70067;SDS011;57425;51.616;6.680;2023-04-01T07:17:45;2.93;;;2.07;;
70067;SDS011;57425;51.616;6.680;2023-04-01T07:22:45;3.10;;;2.20;;
70067;SDS011;57425;51.616;6.680;2023-04-01T07:27:41;3.43;;;2.07;;
70067;SDS011;57425;51.616;6.680;2023-04-01T07:30:13;3.00;;;2.03;;
70067;SDS011;57425;51.616;6.680;2023-04-01T07:43:41;4.78;;;2.20;;
70067;SDS011;57425;51.616;6.680;2023-04-01T07:49:44;4.27;;;2.37;;
70067;SDS011;57425;51.616;6.680;2023-04-01T07:57:50;3.20;;;2.47;;
70067;SDS011;57425;51.616;6.680;2023-04-01T08:00:31;4.70;;;3.07;;
70067;SDS011;57425;51.616;6.680;2023-04-01T08:06:06;5.43;;;3.60;;
70067;SDS011;57425;51.616;6.680;2023-04-01T08:09:25;6.27;;;3.47;;
70067;SDS011;57425;51.616;6.680;2023-04-01T08:16:46;5.10;;;3.17;;
70067;SDS011;57425;51.616;6.680;2023-04-01T08:22:17;5.67;;;3.10;;
70067;SDS011;57425;51.616;6.680;2023-04-01T08:24:51;5.90;;;3.03;;
70067;SDS011;57425;51.616;6.680;2023-04-01T08:30:01;7.40;;;3.57;;
70067;SDS011;57425;51.616;6.680;2023-04-01T08:32:34;6.63;;;3.20;;
70067;SDS011;57425;51.616;6.680;2023-04-01T08:35:14;5.57;;;3.22;;
70067;SDS011;57425;51.616;6.680;2023-04-01T08:37:43;7.03;;;3.73;;
70067;SDS011;57425;51.616;6.680;2023-04-01T08:46:13;9.07;;;3.77;;
70067;SDS011;57425;51.616;6.680;2023-04-01T08:51:18;9.97;;;4.37;;
70067;SDS011;57425;51.616;6.680;2023-04-01T08:54:06;9.90;;;3.53;;
70067;SDS011;57425;51.616;6.680;2023-04-01T09:02:33;5.70;;;3.17;;
70067;SDS011;57425;51.616;6.680;2023-04-01T09:05:18;4.77;;;2.87;;
70067;SDS011;57425;51.616;6.680;2023-04-01T09:15:53;6.40;;;3.50;;
70067;SDS011;57425;51.616;6.680;2023-04-01T09:30:10;5.18;;;2.95;;
70067;SDS011;57425;51.616;6.680;2023-04-01T09:38:21;4.13;;;2.40;;
70067;SDS011;57425;51.616;6.680;2023-04-01T09:43:54;5.13;;;2.93;;
70067;SDS011;57425;51.616;6.680;2023-04-01T09:46:31;4.13;;;2.22;;
70067;SDS011;57425;51.616;6.680;2023-04-01T10:09:51;5.18;;;2.03;;
70067;SDS011;57425;51.616;6.680;2023-04-01T10:18:40;2.92;;;1.98;;
70067;SDS011;57425;51.616;6.680;2023-04-01T10:35:42;5.10;;;2.50;;
70067;SDS011;57425;51.616;6.680;2023-04-01T10:44:20;6.37;;;2.27;;
70067;SDS011;57425;51.616;6.680;2023-04-01T10:58:29;5.55;;;3.35;;
70067;SDS011;57425;51.616;6.680;2023-04-01T11:20:59;8.20;;;2.93;;
70067;SDS011;57425;51.616;6.680;2023-04-01T11:32:29;10.13;;;3.73;;
70067;SDS011;57425;51.616;6.680;2023-04-01T11:40:58;9.50;;;4.17;;
70067;SDS011;57425;51.616;6.680;2023-04-01T11:55:23;5.20;;;3.30;;
70067;SDS011;57425;51.616;6.680;2023-04-01T12:06:05;5.60;;;3.00;;
70067;SDS011;57425;51.616;6.680;2023-04-01T12:35:17;4.33;;;2.77;;
70067;SDS011;57425;51.616;6.680;2023-04-01T12:37:59;3.53;;;2.50;;
70067;SDS011;57425;51.616;6.680;2023-04-01T13:13:05;4.88;;;2.60;;
70067;SDS011;57425;51.616;6.680;2023-04-01T13:15:37;4.87;;;2.43;;
70067;SDS011;57425;51.616;6.680;2023-04-01T13:18:15;5.17;;;2.73;;
70067;SDS011;57425;51.616;6.680;2023-04-01T13:21:03;4.15;;;2.35;;
70067;SDS011;57425;51.616;6.680;2023-04-01T13:28:46;5.40;;;2.37;;
70067;SDS011;57425;51.616;6.680;2023-04-01T13:31:30;3.45;;;2.15;;
70067;SDS011;57425;51.616;6.680;2023-04-01T13:48:40;5.83;;;3.20;;
70067;SDS011;57425;51.616;6.680;2023-04-01T13:57:00;8.73;;;4.10;;
70067;SDS011;57425;51.616;6.680;2023-04-01T14:02:18;6.63;;;3.47;;
70067;SDS011;57425;51.616;6.680;2023-04-01T14:33:15;7.60;;;4.00;;
70067;SDS011;57425;51.616;6.680;2023-04-01T14:38:21;7.03;;;4.17;;
70067;SDS011;57425;51.616;6.680;2023-04-01T14:49:34;8.53;;;4.47;;
70067;SDS011;57425;51.616;6.680;2023-04-01T14:54:37;5.53;;;3.30;;
70067;SDS011;57425;51.616;6.680;2023-04-01T14:57:39;8.27;;;3.43;;
70067;SDS011;57425;51.616;6.680;2023-04-01T15:16:18;4.03;;;2.42;;
70067;SDS011;57425;51.616;6.680;2023-04-01T15:18:50;7.85;;;3.03;;
70067;SDS011;57425;51.616;6.680;2023-04-01T15:38:06;4.53;;;2.08;;
70067;SDS011;57425;51.616;6.680;2023-04-01T15:41:21;5.20;;;2.37;;
70067;SDS011;57425;51.616;6.680;2023-04-01T15:43:48;4.10;;;2.67;;
70067;SDS011;57425;51.616;6.680;2023-04-01T15:46:36;3.47;;;2.63;;
70067;SDS011;57425;51.616;6.680;2023-04-01T15:49:19;8.70;;;3.17;;
70067;SDS011;57425;51.616;6.680;2023-04-01T16:00:29;5.73;;;2.87;;
70067;SDS011;57425;51.616;6.680;2023-04-01T16:05:34;5.97;;;2.90;;
70067;SDS011;57425;51.616;6.680;2023-04-01T16:27:14;3.07;;;2.50;;
70067;SDS011;57425;51.616;6.680;2023-04-01T16:29:53;5.87;;;2.60;;
70067;SDS011;57425;51.616;6.680;2023-04-01T16:35:40;4.32;;;3.20;;
70067;SDS011;57425;51.616;6.680;2023-04-01T16:46:49;5.10;;;2.90;;
70067;SDS011;57425;51.616;6.680;2023-04-01T16:54:39;4.80;;;2.67;;
70067;SDS011;57425;51.616;6.680;2023-04-01T17:02:31;4.18;;;2.72;;
70067;SDS011;57425;51.616;6.680;2023-04-01T17:05:13;3.25;;;2.28;;
70067;SDS011;57425;51.616;6.680;2023-04-01T17:07:46;3.37;;;2.33;;
70067;SDS011;57425;51.616;6.680;2023-04-01T17:15:55;3.50;;;1.80;;
70067;SDS011;57425;51.616;6.680;2023-04-01T17:18:46;4.78;;;2.42;;
70067;SDS011;57425;51.616;6.680;2023-04-01T17:35:33;2.28;;;1.58;;
70067;SDS011;57425;51.616;6.680;2023-04-01T17:38:34;2.70;;;1.63;;
70067;SDS011;57425;51.616;6.680;2023-04-01T17:47:11;2.83;;;1.70;;
70067;SDS011;57425;51.616;6.680;2023-04-01T17:49:48;2.73;;;1.93;;
70067;SDS011;57425;51.616;6.680;2023-04-01T17:52:46;3.97;;;1.93;;
70067;SDS011;57425;51.616;6.680;2023-04-01T18:00:53;4.93;;;1.80;;
70067;SDS011;57425;51.616;6.680;2023-04-01T18:15:40;3.55;;;2.03;;
70067;SDS011;57425;51.616;6.680;2023-04-01T18:26:44;1.83;;;1.48;;
70067;SDS011;57425;51.616;6.680;2023-04-01T18:29:24;1.70;;;1.30;;
70067;SDS011;57425;51.616;6.680;2023-04-01T18:37:23;1.23;;;0.93;;
70067;SDS011;57425;51.616;6.680;2023-04-01T18:40:02;1.10;;;1.00;;
70067;SDS011;57425;51.616;6.680;2023-04-01T18:45:35;1.07;;;0.90;;
70067;SDS011;57425;51.616;6.680;2023-04-01T18:48:12;1.23;;;1.13;;
70067;SDS011;57425;51.616;6.680;2023-04-01T18:50:56;1.73;;;1.05;;
70067;SDS011;57425;51.616;6.680;2023-04-01T18:56:01;1.43;;;1.20;;
70067;SDS011;57425;51.616;6.680;2023-04-01T19:01:26;2.67;;;1.47;;
70067;SDS011;57425;51.616;6.680;2023-04-01T19:04:08;2.10;;;1.03;;
70067;SDS011;57425;51.616;6.680;2023-04-01T19:06:47;1.30;;;1.20;;
70067;SDS011;57425;51.616;6.680;2023-04-01T19:09:58;1.25;;;1.15;;
70067;SDS011;57425;51.616;6.680;2023-04-01T19:15:20;1.87;;;0.80;;
70067;SDS011;57425;51.616;6.680;2023-04-01T19:23:57;0.65;;;0.52;;
70067;SDS011;57425;51.616;6.680;2023-04-01T19:26:39;0.50;;;0.50;;
70067;SDS011;57425;51.616;6.680;2023-04-01T19:29:30;0.80;;;0.80;;
70067;SDS011;57425;51.616;6.680;2023-04-01T19:37:54;0.80;;;0.80;;
70067;SDS011;57425;51.616;6.680;2023-04-01T19:51:38;1.35;;;0.98;;
70067;SDS011;57425;51.616;6.680;2023-04-01T19:54:42;3.33;;;0.90;;
70067;SDS011;57425;51.616;6.680;2023-04-01T19:57:17;0.83;;;0.77;;
70067;SDS011;57425;51.616;6.680;2023-04-01T20:05:38;1.67;;;0.70;;
70067;SDS011;57425;51.616;6.680;2023-04-01T20:16:58;0.57;;;0.57;;
70067;SDS011;57425;51.616;6.680;2023-04-01T20:19:26;1.02;;;0.80;;
70067;SDS011;57425;51.616;6.680;2023-04-01T20:21:59;1.27;;;0.77;;
70067;SDS011;57425;51.616;6.680;2023-04-01T20:37:44;1.33;;;1.00;;
70067;SDS011;57425;51.616;6.680;2023-04-01T20:51:06;0.90;;;0.70;;
70067;SDS011;57425;51.616;6.680;2023-04-01T20:56:27;0.85;;;0.63;;
70067;SDS011;57425;51.616;6.680;2023-04-01T21:02:00;0.80;;;0.80;;
70067;SDS011;57425;51.616;6.680;2023-04-01T21:07:34;1.30;;;0.80;;
70067;SDS011;57425;51.616;6.680;2023-04-01T21:12:56;7.15;;;0.98;;
70067;SDS011;57425;51.616;6.680;2023-04-01T21:15:48;0.80;;;0.80;;
70067;SDS011;57425;51.616;6.680;2023-04-01T21:35:52;0.90;;;0.83;;
70067;SDS011;57425;51.616;6.680;2023-04-01T21:38:38;1.17;;;1.07;;
70067;SDS011;57425;51.616;6.680;2023-04-01T21:41:44;0.80;;;0.80;;
70067;SDS011;57425;51.616;6.680;2023-04-01T21:47:01;1.23;;;1.00;;
70067;SDS011;57425;51.616;6.680;2023-04-01T21:57:49;1.43;;;1.20;;
70067;SDS011;57425;51.616;6.680;2023-04-01T22:00:48;1.83;;;1.13;;
70067;SDS011;57425;51.616;6.680;2023-04-01T22:06:17;2.10;;;1.23;;
70067;SDS011;57425;51.616;6.680;2023-04-01T22:09:01;1.45;;;1.10;;
70067;SDS011;57425;51.616;6.680;2023-04-01T22:17:27;1.57;;;1.13;;
70067;SDS011;57425;51.616;6.680;2023-04-01T22:28:09;1.27;;;1.10;;
70067;SDS011;57425;51.616;6.680;2023-04-01T22:30:46;1.00;;;0.90;;
70067;SDS011;57425;51.616;6.680;2023-04-01T22:41:15;3.73;;;2.00;;
70067;SDS011;57425;51.616;6.680;2023-04-01T22:43:55;1.17;;;0.93;;
70067;SDS011;57425;51.616;6.680;2023-04-01T22:49:14;1.50;;;1.20;;
70067;SDS011;57425;51.616;6.680;2023-04-01T22:51:57;0.97;;;0.90;;
70067;SDS011;57425;51.616;6.680;2023-04-01T22:54:31;1.00;;;0.97;;
70067;SDS011;57425;51.616;6.680;2023-04-01T22:57:02;1.47;;;1.10;;
70067;SDS011;57425;51.616;6.680;2023-04-01T22:59:36;1.57;;;1.10;;
70067;SDS011;57425;51.616;6.680;2023-04-01T23:05:21;1.30;;;0.90;;
70067;SDS011;57425;51.616;6.680;2023-04-01T23:10:46;0.80;;;0.70;;
70067;SDS011;57425;51.616;6.680;2023-04-01T23:13:20;1.57;;;0.67;;
70067;SDS011;57425;51.616;6.680;2023-04-01T23:15:52;1.02;;;0.93;;
70067;SDS011;57425;51.616;6.680;2023-04-01T23:18:23;0.80;;;0.80;;
70067;SDS011;57425;51.616;6.680;2023-04-01T23:23:53;0.80;;;0.80;;
70067;SDS011;57425;51.616;6.680;2023-04-01T23:26:35;1.80;;;1.20;;
70067;SDS011;57425;51.616;6.680;2023-04-01T23:29:36;0.80;;;0.50;;
70067;SDS011;57425;51.616;6.680;2023-04-01T23:32:04;1.50;;;0.60;;
70067;SDS011;57425;51.616;6.680;2023-04-01T23:34:39;1.63;;;0.70;;
70067;SDS011;57425;51.616;6.680;2023-04-01T23:37:11;1.47;;;0.70;;
70067;SDS011;57425;51.616;6.680;2023-04-01T23:39:39;0.73;;;0.73;;
70067;SDS011;57425;51.616;6.680;2023-04-01T23:42:13;0.70;;;0.70;;
70067;SDS011;57425;51.616;6.680;2023-04-01T23:44:48;0.60;;;0.60;;
70067;SDS011;57425;51.616;6.680;2023-04-01T23:47:20;1.00;;;0.90;;
70067;SDS011;57425;51.616;6.680;2023-04-01T23:49:55;0.80;;;0.80;;
70067;SDS011;57425;51.616;6.680;2023-04-01T23:52:27;0.70;;;0.60;;
70067;SDS011;57425;51.616;6.680;2023-04-01T23:55:00;1.30;;;1.07;;
70067;SDS011;57425;51.616;6.680;2023-04-01T23:57:31;1.13;;;0.75;;
